Time;durP1;ratioP1;P1;durP2;ratioP2;P2;SDS_P1;SDS_P2;PMS_P1;PMS_P2;Temp;Humidity;BMP_temperature;BMP_pressure;BME280_temperature;BME280_humidity;BME280_pressure;Samples;Min_cycle;Max_cycle;Signal;HPM_P1;HPM_P2
2023/01/16 00:01:53;;;;;;;0.80;0.20;;;3.90;99.90;;;;;;5075480;28;20419;-59
2023/01/16 00:04:20;;;;;;;0.60;0.60;;;3.90;99.90;;;;;;5075799;28;20430;-60
2023/01/16 00:06:48;;;;;;;1.50;0.20;;;3.90;99.90;;;;;;5073397;28;20431;-60
2023/01/16 00:09:15;;;;;;;0.37;0.10;;;4.00;99.90;;;;;;5073407;28;20834;-60
2023/01/16 00:11:44;;;;;;;0.50;0.20;;;4.10;99.90;;;;;;5074616;28;20506;-59
2023/01/16 00:14:11;;;;;;;0.43;0.20;;;4.00;99.90;;;;;;5074800;28;20439;-60
2023/01/16 00:16:38;;;;;;;0.40;0.10;;;4.00;99.90;;;;;;5074582;28;20419;-57
2023/01/16 00:19:06;;;;;;;0.40;0.20;;;4.10;99.90;;;;;;5074436;28;20530;-60
2023/01/16 00:21:33;;;;;;;0.35;0.20;;;4.10;99.90;;;;;;5074795;28;20443;-59
2023/01/16 00:24:00;;;;;;;0.90;0.20;;;4.10;99.90;;;;;;5074792;28;20462;-60
2023/01/16 00:26:29;;;;;;;0.50;0.20;;;4.20;99.90;;;;;;5073567;28;20426;-58
2023/01/16 00:29:05;;;;;;;0.60;0.20;;;4.10;99.90;;;;;;5073828;28;20489;-61
2023/01/16 00:31:32;;;;;;;0.50;0.20;;;4.10;99.90;;;;;;5073104;28;20933;-59
2023/01/16 00:33:59;;;;;;;0.50;0.20;;;4.20;99.90;;;;;;5074216;28;20438;-58
2023/01/16 00:36:26;;;;;;;0.60;0.20;;;4.10;99.90;;;;;;5074129;28;20747;-58
2023/01/16 00:38:54;;;;;;;0.40;0.20;;;4.20;99.90;;;;;;5074656;28;20438;-58
2023/01/16 00:41:22;;;;;;;0.60;0.20;;;4.10;99.90;;;;;;5074548;28;20424;-58
2023/01/16 00:43:49;;;;;;;0.75;0.20;;;4.10;99.90;;;;;;5074346;28;20476;-58
2023/01/16 00:46:17;;;;;;;0.90;0.10;;;4.20;99.90;;;;;;5073351;28;20798;-57
2023/01/16 00:48:45;;;;;;;0.90;0.20;;;4.20;99.90;;;;;;5070334;28;20914;-58
2023/01/16 00:51:12;;;;;;;0.60;0.20;;;4.30;99.90;;;;;;5074335;28;20429;-58
2023/01/16 00:53:39;;;;;;;0.50;0.20;;;4.20;99.90;;;;;;5074184;28;20443;-58
2023/01/16 00:56:07;;;;;;;0.80;0.20;;;4.20;99.90;;;;;;5074234;28;20422;-58
2023/01/16 00:58:35;;;;;;;0.90;0.20;;;4.20;99.90;;;;;;5073750;28;20510;-58
2023/01/16 01:01:02;;;;;;;0.40;0.20;;;4.20;99.90;;;;;;5074269;28;20430;-59
2023/01/16 01:03:31;;;;;;;0.60;0.20;;;4.20;99.90;;;;;;5074416;28;20870;-59
2023/01/16 01:05:59;;;;;;;0.70;0.20;;;4.10;99.90;;;;;;5074439;28;20863;-59
2023/01/16 01:08:26;;;;;;;0.50;0.20;;;4.00;99.90;;;;;;5073572;28;20561;-58
2023/01/16 01:10:53;;;;;;;0.65;0.20;;;4.00;99.90;;;;;;5073592;28;20419;-58
2023/01/16 01:13:20;;;;;;;0.50;0.20;;;4.00;99.90;;;;;;5074590;28;20521;-58
2023/01/16 01:15:47;;;;;;;0.40;0.10;;;4.00;99.90;;;;;;5073332;28;20449;-58
2023/01/16 01:18:14;;;;;;;1.05;0.10;;;4.00;99.90;;;;;;5076428;28;20518;-58
2023/01/16 01:20:43;;;;;;;0.40;0.20;;;3.90;99.90;;;;;;5080803;28;20506;-58
2023/01/16 01:23:10;;;;;;;0.77;0.15;;;3.90;99.90;;;;;;5080536;28;20435;-58
2023/01/16 01:25:38;;;;;;;0.40;0.10;;;3.80;99.90;;;;;;5080567;28;20534;-58
2023/01/16 01:28:06;;;;;;;0.70;0.20;;;3.80;99.90;;;;;;5076813;28;20849;-58
2023/01/16 01:30:33;;;;;;;0.90;0.20;;;3.80;99.90;;;;;;5081279;28;20423;-58
2023/01/16 01:33:00;;;;;;;0.40;0.20;;;3.80;99.90;;;;;;5081365;28;20520;-58
2023/01/16 01:35:27;;;;;;;1.20;0.20;;;3.90;99.90;;;;;;5081539;28;20431;-58
2023/01/16 01:37:56;;;;;;;0.40;0.20;;;3.90;99.90;;;;;;5080712;28;20847;-58
2023/01/16 01:40:23;;;;;;;1.20;0.10;;;3.90;99.90;;;;;;5081189;28;20443;-58
2023/01/16 01:42:53;;;;;;;0.50;0.20;;;3.90;99.90;;;;;;5080981;28;20542;-58
2023/01/16 01:45:22;;;;;;;0.50;0.20;;;3.90;99.90;;;;;;5080156;28;20431;-58
2023/01/16 01:47:56;;;;;;;0.40;0.20;;;3.90;99.90;;;;;;5081427;28;20489;-59
2023/01/16 01:50:34;;;;;;;0.40;0.20;;;3.90;99.90;;;;;;5081420;28;20415;-58
2023/01/16 01:53:08;;;;;;;1.00;0.20;;;3.80;99.90;;;;;;5081558;28;20435;-59
2023/01/16 01:55:35;;;;;;;1.80;0.20;;;3.80;99.90;;;;;;5080978;28;20453;-59
2023/01/16 01:58:03;;;;;;;0.40;0.20;;;3.70;99.90;;;;;;5081304;28;20427;-58
2023/01/16 02:00:31;;;;;;;0.40;0.10;;;3.80;99.90;;;;;;5080735;28;21045;-58
2023/01/16 02:03:05;;;;;;;0.40;0.20;;;3.80;99.90;;;;;;5081212;28;20433;-59
2023/01/16 02:05:37;;;;;;;0.70;0.10;;;3.80;99.90;;;;;;5080500;28;20891;-59
2023/01/16 02:08:07;;;;;;;0.40;0.10;;;3.80;99.90;;;;;;5081404;28;20521;-59
2023/01/16 02:10:39;;;;;;;0.60;0.20;;;3.80;99.90;;;;;;5080677;28;20427;-59
2023/01/16 02:13:07;;;;;;;0.98;0.20;;;3.80;99.90;;;;;;5081347;28;21057;-59
2023/01/16 02:15:35;;;;;;;0.90;0.20;;;3.80;99.90;;;;;;5080477;28;20461;-58
2023/01/16 02:20:59;;;;;;;1.30;0.20;;;3.60;99.90;;;;;;5079609;28;20723;-59
2023/01/16 02:24:02;;;;;;;0.88;0.20;;;3.60;99.90;;;;;;5080782;28;20914;-59
2023/01/16 02:27:02;;;;;;;0.60;0.20;;;3.60;99.90;;;;;;5080018;28;20787;-59
2023/01/16 02:30:09;;;;;;;0.43;0.20;;;3.60;99.90;;;;;;5078459;28;20431;-59
2023/01/16 02:32:52;;;;;;;0.50;0.20;;;3.70;99.90;;;;;;5076854;28;20434;-58
2023/01/16 02:35:33;;;;;;;0.70;0.20;;;3.70;99.90;;;;;;5076855;28;20463;-59
2023/01/16 02:38:04;;;;;;;0.60;0.20;;;3.80;99.90;;;;;;5076810;28;20514;-59
2023/01/16 02:40:42;;;;;;;0.98;0.20;;;3.80;99.90;;;;;;5077042;28;20502;-60
2023/01/16 02:43:21;;;;;;;0.60;0.20;;;3.80;99.90;;;;;;5077346;28;20597;-58
2023/01/16 02:45:53;;;;;;;1.10;0.20;;;3.80;99.90;;;;;;5077181;28;20723;-58
2023/01/16 02:48:31;;;;;;;1.30;0.20;;;3.80;99.90;;;;;;5077544;28;20477;-59
2023/01/16 02:51:06;;;;;;;0.40;0.10;;;3.80;99.90;;;;;;5076927;28;20416;-58
2023/01/16 02:53:38;;;;;;;1.00;0.20;;;3.80;99.90;;;;;;5077560;28;20863;-58
2023/01/16 02:56:09;;;;;;;0.40;0.20;;;3.80;99.90;;;;;;5077250;28;20438;-58
2023/01/16 02:58:42;;;;;;;0.90;0.20;;;3.80;99.90;;;;;;5076956;28;20479;-58
2023/01/16 03:01:11;;;;;;;0.80;0.20;;;3.80;99.90;;;;;;5077456;28;20459;-58
2023/01/16 03:03:42;;;;;;;0.60;0.20;;;3.70;99.90;;;;;;5076920;28;20513;-59
2023/01/16 03:06:31;;;;;;;0.40;0.20;;;3.70;99.90;;;;;;5076774;28;20419;-58
2023/01/16 03:09:24;;;;;;;0.40;0.20;;;3.60;99.90;;;;;;5076820;28;20922;-58
2023/01/16 03:12:09;;;;;;;0.50;0.10;;;3.70;99.90;;;;;;5074402;28;20774;-59
2023/01/16 03:14:44;;;;;;;0.80;0.20;;;3.70;99.90;;;;;;5076901;28;20438;-59
2023/01/16 03:17:27;;;;;;;0.40;0.20;;;3.80;99.90;;;;;;5076692;28;20423;-58
2023/01/16 03:20:08;;;;;;;0.85;0.20;;;3.80;99.90;;;;;;5076596;28;20511;-58
2023/01/16 03:22:40;;;;;;;0.50;0.20;;;3.80;99.90;;;;;;5076616;28;20738;-59
2023/01/16 03:25:22;;;;;;;0.85;0.15;;;3.90;99.90;;;;;;5076619;28;20422;-58
2023/01/16 03:27:57;;;;;;;0.47;0.20;;;3.90;99.90;;;;;;5076804;28;20423;-58
2023/01/16 03:30:30;;;;;;;0.80;0.20;;;4.00;99.90;;;;;;5077010;28;20430;-59
2023/01/16 03:33:04;;;;;;;0.60;0.20;;;3.90;99.90;;;;;;5075704;28;20466;-58
2023/01/16 03:35:38;;;;;;;0.65;0.28;;;3.90;99.90;;;;;;5076285;28;20432;-59
2023/01/16 03:38:09;;;;;;;1.25;0.20;;;4.00;99.90;;;;;;5076813;28;20546;-58
2023/01/16 03:40:41;;;;;;;0.47;0.20;;;4.00;99.90;;;;;;5075819;28;20420;-58
2023/01/16 03:43:13;;;;;;;0.40;0.13;;;3.90;99.90;;;;;;5076242;28;20434;-59
2023/01/16 03:45:44;;;;;;;0.85;0.20;;;3.90;99.90;;;;;;5074641;28;20427;-61
2023/01/16 03:48:17;;;;;;;0.60;0.30;;;3.80;99.90;;;;;;5076487;28;20439;-59
2023/01/16 03:50:52;;;;;;;0.35;0.10;;;3.80;99.90;;;;;;5075669;28;20426;-58
2023/01/16 03:53:22;;;;;;;0.60;0.20;;;3.70;99.90;;;;;;5076067;28;20426;-59
2023/01/16 03:55:58;;;;;;;1.00;0.20;;;3.70;99.90;;;;;;5075120;28;20522;-58
2023/01/16 03:58:29;;;;;;;0.40;0.10;;;3.70;99.90;;;;;;5075797;28;20426;-58
2023/01/16 04:01:02;;;;;;;0.35;0.15;;;3.70;99.90;;;;;;5075744;28;20436;-59
2023/01/16 04:03:34;;;;;;;0.52;0.20;;;3.60;99.90;;;;;;5075420;28;20438;-58
2023/01/16 04:06:09;;;;;;;0.40;0.10;;;3.60;99.90;;;;;;5074388;28;20415;-59
2023/01/16 04:08:39;;;;;;;1.00;0.20;;;3.60;99.90;;;;;;5074225;28;20428;-59
2023/01/16 04:11:07;;;;;;;0.40;0.10;;;3.60;99.90;;;;;;5074715;28;20851;-59
2023/01/16 04:13:39;;;;;;;1.10;0.20;;;3.50;99.90;;;;;;5074204;28;20510;-59
2023/01/16 04:16:10;;;;;;;0.50;0.20;;;3.50;99.90;;;;;;5074594;28;20507;-59
2023/01/16 04:18:38;;;;;;;0.50;0.20;;;3.50;99.90;;;;;;5074868;28;20593;-59
2023/01/16 04:21:08;;;;;;;0.60;0.20;;;3.50;99.90;;;;;;5075326;28;20419;-59
2023/01/16 04:23:36;;;;;;;0.47;0.20;;;3.50;99.90;;;;;;5075604;28;20510;-59
2023/01/16 04:26:03;;;;;;;0.40;0.20;;;3.50;99.90;;;;;;5075581;28;20823;-59
2023/01/16 04:28:30;;;;;;;0.50;0.20;;;3.60;99.90;;;;;;5075635;28;20435;-59
2023/01/16 04:30:58;;;;;;;1.10;0.30;;;3.60;99.90;;;;;;5075520;28;20503;-59
2023/01/16 04:33:25;;;;;;;0.40;0.20;;;3.70;99.90;;;;;;5075096;28;20425;-59
2023/01/16 04:35:52;;;;;;;0.50;0.10;;;3.70;99.90;;;;;;5075134;28;20424;-59
2023/01/16 04:38:21;;;;;;;0.60;0.20;;;3.60;99.90;;;;;;5074900;28;20941;-59
2023/01/16 04:40:48;;;;;;;0.50;0.20;;;3.50;99.90;;;;;;5075098;28;20800;-59
2023/01/16 04:43:15;;;;;;;0.88;0.20;;;3.50;99.90;;;;;;5075055;28;20924;-59
2023/01/16 04:45:42;;;;;;;1.70;0.20;;;3.40;99.90;;;;;;5075048;28;20411;-58
2023/01/16 04:48:10;;;;;;;0.80;0.20;;;3.30;99.90;;;;;;5075012;28;20884;-59
2023/01/16 04:50:37;;;;;;;0.90;0.30;;;3.30;99.90;;;;;;5074906;28;20451;-58
2023/01/16 04:53:04;;;;;;;1.00;0.20;;;3.30;99.90;;;;;;5074290;28;20428;-58
2023/01/16 04:55:33;;;;;;;0.60;0.20;;;3.30;99.90;;;;;;5074997;28;20920;-58
2023/01/16 04:58:00;;;;;;;0.40;0.20;;;3.30;99.90;;;;;;5073713;28;20430;-59
2023/01/16 05:00:27;;;;;;;0.60;0.20;;;3.30;99.90;;;;;;5074283;28;20455;-59
2023/01/16 05:02:54;;;;;;;0.50;0.20;;;3.20;99.90;;;;;;5074501;28;20434;-59
2023/01/16 05:05:22;;;;;;;1.30;0.20;;;3.20;99.90;;;;;;5074865;28;20420;-59
2023/01/16 05:08:15;;;;;;;1.40;0.30;;;3.30;99.90;;;;;;5073765;28;20428;-59
2023/01/16 05:10:38;;;;;;;1.00;0.30;;;3.30;99.90;;;;;;5073919;28;20427;-59
2023/01/16 05:13:05;;;;;;;0.57;0.30;;;3.30;99.90;;;;;;5074818;28;20419;-59
2023/01/16 05:15:32;;;;;;;1.30;0.20;;;3.30;99.90;;;;;;5074013;28;20802;-58
2023/01/16 05:17:59;;;;;;;1.10;0.40;;;3.40;99.90;;;;;;5074285;28;20431;-58
2023/01/16 05:20:26;;;;;;;1.08;0.30;;;3.40;99.90;;;;;;5073506;28;20757;-58
2023/01/16 05:22:54;;;;;;;1.75;0.40;;;3.40;99.90;;;;;;5074278;28;20424;-58
2023/01/16 05:25:21;;;;;;;0.80;0.30;;;3.40;99.90;;;;;;5074361;28;20503;-59
2023/01/16 05:27:52;;;;;;;0.90;0.30;;;3.40;99.90;;;;;;5074263;28;20428;-59
2023/01/16 05:30:19;;;;;;;0.80;0.30;;;3.30;99.90;;;;;;5074628;28;20426;-59
2023/01/16 05:32:46;;;;;;;0.73;0.30;;;3.30;99.90;;;;;;5073229;28;20454;-59
2023/01/16 05:35:15;;;;;;;0.70;0.40;;;3.30;99.90;;;;;;5072915;28;20830;-59
2023/01/16 05:37:43;;;;;;;0.50;0.30;;;3.30;99.90;;;;;;5073585;28;20419;-58
2023/01/16 05:40:11;;;;;;;1.95;0.30;;;3.30;99.90;;;;;;5073499;28;20839;-58
2023/01/16 05:42:39;;;;;;;0.57;0.30;;;3.30;99.90;;;;;;5071788;28;20903;-58
2023/01/16 05:45:09;;;;;;;0.60;0.30;;;3.40;99.90;;;;;;5072718;28;20878;-58
2023/01/16 05:47:36;;;;;;;0.60;0.30;;;3.40;99.90;;;;;;5072605;28;20426;-58
2023/01/16 05:50:04;;;;;;;0.60;0.30;;;3.40;99.90;;;;;;5073466;28;20419;-59
2023/01/16 05:52:31;;;;;;;0.80;0.40;;;3.30;99.90;;;;;;5072847;28;20506;-59
2023/01/16 05:54:58;;;;;;;1.00;0.30;;;3.30;99.90;;;;;;5073349;28;20431;-59
2023/01/16 05:57:25;;;;;;;1.00;0.30;;;3.20;99.90;;;;;;5073234;28;20514;-58
2023/01/16 05:59:53;;;;;;;0.80;0.20;;;3.40;99.90;;;;;;5073781;28;20419;-60
2023/01/16 06:02:22;;;;;;;2.00;0.30;;;3.50;99.90;;;;;;5073337;28;20502;-60
2023/01/16 06:04:49;;;;;;;0.70;0.30;;;3.50;99.90;;;;;;5073309;28;20522;-60
2023/01/16 06:07:17;;;;;;;0.70;0.30;;;3.40;99.90;;;;;;5076151;28;20422;-59
2023/01/16 06:09:44;;;;;;;0.70;0.37;;;3.40;99.90;;;;;;5077580;28;20435;-59
2023/01/16 06:12:15;;;;;;;1.10;0.40;;;3.50;99.90;;;;;;5076565;28;20419;-59
2023/01/16 06:14:43;;;;;;;1.20;0.32;;;3.50;99.90;;;;;;5077120;28;20431;-59
2023/01/16 06:17:10;;;;;;;0.60;0.30;;;3.40;99.90;;;;;;5077202;28;21017;-59
2023/01/16 06:19:39;;;;;;;0.80;0.40;;;3.40;99.90;;;;;;5076172;28;20437;-59
2023/01/16 06:22:06;;;;;;;1.13;0.30;;;3.40;99.90;;;;;;5076644;28;20514;-59
2023/01/16 06:24:33;;;;;;;0.40;0.30;;;3.30;99.90;;;;;;5076757;28;20518;-59
2023/01/16 06:27:01;;;;;;;0.90;0.30;;;3.20;99.90;;;;;;5076262;28;20422;-59
2023/01/16 06:29:28;;;;;;;1.00;0.30;;;3.10;99.90;;;;;;5077042;28;20428;-59
2023/01/16 06:31:55;;;;;;;0.75;0.30;;;3.20;99.90;;;;;;5075720;28;20847;-59
2023/01/16 06:34:22;;;;;;;0.70;0.30;;;3.20;99.90;;;;;;5074697;28;20859;-59
2023/01/16 06:36:51;;;;;;;0.50;0.30;;;3.30;99.90;;;;;;5073592;28;20440;-59
2023/01/16 06:39:19;;;;;;;0.80;0.27;;;3.30;99.90;;;;;;5075143;28;20424;-59
2023/01/16 06:41:46;;;;;;;0.40;0.30;;;3.20;99.90;;;;;;5074327;28;20476;-59
2023/01/16 06:44:13;;;;;;;1.30;0.20;;;3.30;99.90;;;;;;5074968;28;20446;-60
2023/01/16 06:46:40;;;;;;;1.00;0.20;;;3.30;99.90;;;;;;5075362;28;20451;-59
2023/01/16 06:49:07;;;;;;;0.55;0.30;;;3.30;99.90;;;;;;5075915;28;20534;-60
2023/01/16 06:51:34;;;;;;;0.90;0.30;;;3.30;99.90;;;;;;5075872;28;20466;-59
2023/01/16 06:54:04;;;;;;;0.90;0.20;;;3.30;99.90;;;;;;5075039;28;20431;-59
2023/01/16 06:56:31;;;;;;;0.80;0.20;;;3.20;99.90;;;;;;5075189;28;20442;-59
2023/01/16 06:58:58;;;;;;;1.30;0.30;;;3.20;99.90;;;;;;5075803;28;20509;-59
2023/01/16 07:01:25;;;;;;;0.70;0.30;;;3.20;99.90;;;;;;5074645;28;20514;-59
2023/01/16 07:03:53;;;;;;;0.60;0.30;;;3.20;99.90;;;;;;5075228;28;20424;-59
2023/01/16 07:06:20;;;;;;;0.50;0.30;;;3.20;99.90;;;;;;5070994;28;20498;-59
2023/01/16 07:08:48;;;;;;;0.50;0.20;;;3.30;99.90;;;;;;5062888;28;20519;-59
2023/01/16 07:11:17;;;;;;;1.00;0.50;;;3.20;99.90;;;;;;5071104;28;20431;-62
2023/01/16 07:13:45;;;;;;;0.80;0.30;;;3.20;99.90;;;;;;5077344;28;20430;-59
2023/01/16 07:24:37;;;;;;;1.10;0.30;;;3.20;99.90;;;;;;5063924;28;20520;-59
2023/01/16 07:27:08;;;;;;;1.60;0.30;;;3.40;99.90;;;;;;5072087;28;20419;-59
2023/01/16 07:29:36;;;;;;;0.60;0.30;;;3.50;99.90;;;;;;5072012;28;20467;-59
2023/01/16 07:32:04;;;;;;;6.40;0.30;;;3.40;99.90;;;;;;5073365;28;20436;-59
2023/01/16 07:34:32;;;;;;;0.50;0.30;;;3.30;99.90;;;;;;5071046;28;20467;-59
2023/01/16 07:36:59;;;;;;;0.60;0.30;;;3.30;99.90;;;;;;5073214;28;20432;-59
2023/01/16 07:39:26;;;;;;;0.60;0.30;;;3.30;99.90;;;;;;5073122;28;20456;-59
2023/01/16 07:41:53;;;;;;;0.50;0.30;;;3.40;99.90;;;;;;5070649;28;20435;-58
2023/01/16 07:44:22;;;;;;;1.40;0.30;;;3.40;99.90;;;;;;5071582;28;20437;-58
2023/01/16 07:46:49;;;;;;;0.55;0.32;;;3.40;99.90;;;;;;5069983;28;20813;-59
2023/01/16 07:49:16;;;;;;;0.65;0.30;;;3.40;99.90;;;;;;5072394;28;20796;-59
2023/01/16 07:51:43;;;;;;;1.50;0.40;;;3.50;99.90;;;;;;5056793;28;20616;-59
2023/01/16 07:54:11;;;;;;;1.15;0.30;;;3.50;99.90;;;;;;5061836;28;20975;-59
2023/01/16 07:56:38;;;;;;;0.70;0.30;;;3.50;99.90;;;;;;5063507;28;20489;-59
2023/01/16 07:59:06;;;;;;;0.50;0.30;;;3.50;99.90;;;;;;5068405;28;20427;-59
2023/01/16 08:01:35;;;;;;;0.60;0.30;;;3.50;99.90;;;;;;5073894;28;20819;-60
2023/01/16 08:04:02;;;;;;;1.30;0.30;;;3.60;99.90;;;;;;5071435;28;20982;-59
2023/01/16 08:06:29;;;;;;;1.60;0.40;;;3.70;99.90;;;;;;5071170;28;20498;-59
2023/01/16 08:08:57;;;;;;;1.27;0.40;;;3.60;99.90;;;;;;5071284;28;20451;-59
2023/01/16 08:11:36;;;;;;;1.13;0.40;;;3.80;99.90;;;;;;5066997;28;20510;-59
2023/01/16 08:14:04;;;;;;;1.40;0.40;;;3.80;99.90;;;;;;5071162;28;20508;-59
2023/01/16 08:16:31;;;;;;;0.60;0.40;;;3.80;99.90;;;;;;5064894;28;20429;-59
2023/01/16 08:19:00;;;;;;;1.00;0.30;;;3.80;99.90;;;;;;5066613;28;20540;-59
2023/01/16 08:21:27;;;;;;;0.70;0.30;;;3.80;99.90;;;;;;5070405;28;20672;-60
2023/01/16 08:23:54;;;;;;;0.80;0.30;;;3.90;99.90;;;;;;5070920;28;20439;-60
2023/01/16 08:26:21;;;;;;;0.60;0.30;;;3.90;99.90;;;;;;5072354;28;20422;-59
2023/01/16 08:28:49;;;;;;;0.60;0.30;;;4.00;99.90;;;;;;5069921;28;20469;-59
2023/01/16 08:31:17;;;;;;;0.40;0.20;;;4.10;99.90;;;;;;5070476;28;20442;-59
2023/01/16 08:33:46;;;;;;;0.55;0.30;;;4.10;99.90;;;;;;5073655;28;20443;-59
2023/01/16 08:36:16;;;;;;;2.80;0.30;;;4.10;99.90;;;;;;5071507;28;20434;-59
2023/01/16 08:38:43;;;;;;;1.10;0.30;;;4.10;99.90;;;;;;5056330;28;20435;-59
2023/01/16 08:51:21;;;;;;;0.60;0.30;;;4.20;99.90;;;;;;5075364;28;20814;-59
2023/01/16 08:52:14;;;;;;;0.52;0.30;;;4.30;99.90;;;;;;5057598;28;20419;-59
2023/01/16 08:54:43;;;;;;;1.10;0.30;;;4.30;99.90;;;;;;5067912;28;20444;-59
2023/01/16 08:57:11;;;;;;;0.60;0.30;;;4.20;99.90;;;;;;5068795;28;20516;-62
2023/01/16 08:59:38;;;;;;;1.03;0.30;;;4.30;99.90;;;;;;5070415;28;20793;-60
2023/01/16 09:02:07;;;;;;;0.80;0.30;;;4.30;99.90;;;;;;5057528;28;20433;-59
2023/01/16 09:04:36;;;;;;;0.60;0.20;;;4.50;99.90;;;;;;5070317;28;20423;-59
2023/01/16 09:07:03;;;;;;;0.60;0.20;;;4.90;99.90;;;;;;5084149;28;20586;-59
2023/01/16 09:09:32;;;;;;;1.02;0.20;;;4.90;99.90;;;;;;5076718;28;20542;-59
2023/01/16 09:14:44;;;;;;;0.80;0.20;;;4.80;99.90;;;;;;5067802;28;20423;-59
2023/01/16 09:17:11;;;;;;;0.50;0.20;;;4.70;99.90;;;;;;5068101;28;20824;-60
2023/01/16 09:19:38;;;;;;;0.90;0.20;;;4.70;99.90;;;;;;5072035;28;20437;-59
2023/01/16 09:22:06;;;;;;;0.90;0.20;;;4.80;99.90;;;;;;5078294;28;20508;-59
2023/01/16 09:24:35;;;;;;;0.50;0.20;;;4.70;99.90;;;;;;5092226;28;20425;-59
2023/01/16 09:27:03;;;;;;;0.60;0.20;;;4.70;99.90;;;;;;5075360;28;20419;-59
2023/01/16 09:29:30;;;;;;;0.50;0.20;;;4.80;99.90;;;;;;5082579;28;20516;-59
2023/01/16 09:31:58;;;;;;;1.00;0.20;;;4.90;99.90;;;;;;5088261;28;20422;-60
2023/01/16 09:34:25;;;;;;;1.33;0.20;;;4.90;99.90;;;;;;5088019;28;20857;-59
2023/01/16 09:36:52;;;;;;;0.40;0.20;;;5.00;99.90;;;;;;5092176;28;20430;-59
2023/01/16 09:39:19;;;;;;;0.40;0.20;;;5.00;99.90;;;;;;5091441;28;20452;-59
2023/01/16 09:44:49;;;;;;;0.50;0.30;;;5.10;99.90;;;;;;5096066;28;20448;-59
2023/01/16 09:47:16;;;;;;;0.50;0.20;;;5.20;99.90;;;;;;5096306;28;20428;-59
2023/01/16 09:49:48;;;;;;;0.50;0.20;;;5.20;99.90;;;;;;5095828;28;20422;-59
2023/01/16 10:00:49;;;;;;;1.80;0.20;;;5.30;99.90;;;;;;5078724;28;20494;-58
2023/01/16 10:03:16;;;;;;;0.70;0.20;;;5.30;99.90;;;;;;5074466;28;20427;-58
2023/01/16 10:05:49;;;;;;;0.45;0.20;;;5.40;99.90;;;;;;5087528;28;20423;-58
2023/01/16 10:08:24;;;;;;;0.47;0.20;;;5.40;99.90;;;;;;5087595;28;20430;-58
2023/01/16 10:11:00;;;;;;;0.40;0.20;;;5.40;99.90;;;;;;5091384;28;20426;-59
2023/01/16 10:13:58;;;;;;;0.90;0.20;;;5.40;99.90;;;;;;5054757;28;20433;-59
2023/01/16 10:16:36;;;;;;;0.40;0.20;;;5.50;99.90;;;;;;5075918;28;20802;-58
2023/01/16 10:19:10;;;;;;;0.40;0.20;;;5.40;99.90;;;;;;5094184;28;20853;-59
2023/01/16 10:22:00;;;;;;;1.30;0.30;;;5.40;99.90;;;;;;5093389;28;20690;-58
2023/01/16 10:24:40;;;;;;;0.40;0.20;;;5.40;99.90;;;;;;5052648;28;20455;-58
2023/01/16 10:27:14;;;;;;;1.90;0.20;;;5.50;99.90;;;;;;5067473;28;20423;-59
2023/01/16 10:29:47;;;;;;;0.77;0.20;;;5.60;99.90;;;;;;5084854;28;20426;-60
2023/01/16 10:32:21;;;;;;;0.40;0.20;;;5.60;99.90;;;;;;5093334;28;20416;-59
2023/01/16 10:34:55;;;;;;;0.40;0.20;;;5.70;99.90;;;;;;5093502;28;20460;-57
2023/01/16 10:37:23;;;;;;;0.40;0.20;;;5.70;99.90;;;;;;5074194;28;20528;-58
2023/01/16 10:39:52;;;;;;;0.30;0.10;;;5.70;99.90;;;;;;5076645;28;20414;-59
2023/01/16 10:50:46;;;;;;;0.60;0.22;;;6.00;99.90;;;;;;5070557;28;20419;-59
2023/01/16 10:53:13;;;;;;;0.90;0.20;;;6.00;99.90;;;;;;5058724;28;20447;-59
2023/01/16 10:55:44;;;;;;;0.70;0.13;;;6.10;99.90;;;;;;5065152;28;20523;-59
2023/01/16 10:58:24;;;;;;;0.40;0.10;;;6.10;99.90;;;;;;5076145;28;20435;-60
2023/01/16 11:00:57;;;;;;;0.40;0.10;;;6.10;99.90;;;;;;5071375;28;20523;-60
2023/01/16 11:03:33;;;;;;;0.70;0.20;;;6.10;99.90;;;;;;5081859;28;20432;-57
2023/01/16 11:06:10;;;;;;;0.60;0.10;;;6.10;99.90;;;;;;5071804;28;20415;-58
2023/01/16 11:08:38;;;;;;;0.60;0.20;;;6.20;99.90;;;;;;5073792;28;20522;-58
2023/01/16 11:18:27;;;;;;;0.40;0.20;;;6.20;99.90;;;;;;5088654;28;20517;-59
2023/01/16 11:19:27;;;;;;;0.40;0.20;;;6.70;99.90;;;;;;5060359;28;20436;-56
2023/01/16 11:21:56;;;;;;;0.30;0.10;;;6.70;99.90;;;;;;5067841;28;20525;-57
2023/01/16 11:24:29;;;;;;;0.50;0.20;;;6.70;99.90;;;;;;5069060;28;20535;-57
2023/01/16 11:26:59;;;;;;;1.20;0.20;;;6.60;99.90;;;;;;5065861;28;20495;-57
2023/01/16 11:29:31;;;;;;;0.30;0.10;;;6.50;99.90;;;;;;5066166;28;20534;-57
2023/01/16 11:32:11;;;;;;;0.50;0.20;;;6.50;99.90;;;;;;5063264;28;20519;-58
2023/01/16 11:34:39;;;;;;;0.40;0.13;;;6.50;99.90;;;;;;5066791;28;20471;-59
2023/01/16 11:37:08;;;;;;;0.40;0.20;;;6.50;99.90;;;;;;5065164;28;20438;-58
2023/01/16 11:39:37;;;;;;;0.60;0.20;;;6.50;99.90;;;;;;5072411;28;20566;-58
2023/01/16 11:46:02;;;;;;;0.70;0.20;;;6.50;99.90;;;;;;5072189;28;20472;-58
2023/01/16 11:47:54;;;;;;;0.47;0.20;;;6.40;99.90;;;;;;5091341;28;20429;-58
2023/01/16 11:50:28;;;;;;;0.40;0.10;;;6.40;99.90;;;;;;5092866;28;20509;-59
2023/01/16 11:52:55;;;;;;;0.30;0.10;;;6.40;99.90;;;;;;5077411;28;20427;-58
2023/01/16 11:55:33;;;;;;;0.30;0.10;;;6.50;99.90;;;;;;5075135;28;20861;-61
2023/01/16 11:58:13;;;;;;;0.40;0.15;;;6.50;99.90;;;;;;5071935;28;20530;-59
2023/01/16 12:00:52;;;;;;;0.40;0.10;;;6.50;99.90;;;;;;5072237;28;20423;-59
2023/01/16 12:03:53;;;;;;;0.80;0.10;;;6.50;99.90;;;;;;5072684;28;20433;-59
2023/01/16 12:06:40;;;;;;;0.40;0.10;;;6.60;99.90;;;;;;5090293;28;20462;-59
2023/01/16 12:09:22;;;;;;;0.88;0.13;;;6.50;99.90;;;;;;5072732;28;20522;-58
2023/01/16 12:14:17;;;;;;;0.40;0.20;;;6.50;99.90;;;;;;5072958;28;20431;-58
2023/01/16 12:14:55;;;;;;;0.52;0.20;;;6.60;99.90;;;;;;5071400;28;20473;-59
2023/01/16 12:17:32;;;;;;;0.70;0.40;;;6.60;99.90;;;;;;5076594;28;20807;-59
2023/01/16 12:20:09;;;;;;;0.50;0.20;;;6.60;99.90;;;;;;5076390;28;20427;-59
2023/01/16 12:23:05;;;;;;;0.35;0.20;;;6.70;99.90;;;;;;5050581;28;20421;-59
2023/01/16 12:25:40;;;;;;;0.40;0.20;;;6.70;99.90;;;;;;5060799;28;20446;-59
2023/01/16 12:28:19;;;;;;;0.30;0.10;;;6.80;99.90;;;;;;5082611;28;20450;-57
2023/01/16 12:31:16;;;;;;;0.40;0.20;;;6.80;99.90;;;;;;5078298;28;20432;-58
2023/01/16 12:33:48;;;;;;;0.50;0.20;;;6.90;99.90;;;;;;5057568;28;20433;-58
2023/01/16 12:36:24;;;;;;;0.47;0.20;;;6.90;99.90;;;;;;5082892;28;20422;-58
2023/01/16 12:39:00;;;;;;;0.60;0.30;;;6.90;99.90;;;;;;5092174;28;20520;-59
2023/01/16 12:44:33;;;;;;;0.40;0.20;;;7.10;99.90;;;;;;5073198;28;20501;-59
2023/01/16 12:47:18;;;;;;;0.40;0.10;;;7.10;99.90;;;;;;5082554;28;20946;-59
2023/01/16 12:49:53;;;;;;;0.40;0.10;;;7.20;99.90;;;;;;5070806;28;20439;-59
2023/01/16 12:52:33;;;;;;;0.30;0.15;;;7.20;99.90;;;;;;5072011;28;20486;-58
2023/01/16 12:55:16;;;;;;;0.30;0.10;;;7.20;99.90;;;;;;5071245;28;21300;-58
2023/01/16 12:58:00;;;;;;;0.40;0.20;;;7.20;99.90;;;;;;5078059;28;20426;-59
2023/01/16 13:00:31;;;;;;;0.40;0.20;;;7.30;99.90;;;;;;5091918;28;20424;-59
2023/01/16 13:03:02;;;;;;;0.38;0.10;;;7.30;99.90;;;;;;5078158;28;20438;-59
2023/01/16 13:05:33;;;;;;;0.30;0.10;;;7.30;99.90;;;;;;5072496;28;20455;-59
2023/01/16 13:08:09;;;;;;;0.30;0.10;;;7.30;99.90;;;;;;5071070;28;20534;-58
2023/01/16 13:13:26;;;;;;;1.15;0.10;;;7.30;99.90;;;;;;5068612;28;20455;-58
2023/01/16 13:16:03;;;;;;;0.30;0.10;;;7.40;99.90;;;;;;5066333;28;20444;-52
2023/01/16 13:18:38;;;;;;;0.30;0.10;;;7.40;99.90;;;;;;5083007;28;20425;-57
2023/01/16 13:21:10;;;;;;;0.40;0.20;;;7.40;99.90;;;;;;5073815;28;20439;-55
2023/01/16 13:23:45;;;;;;;1.30;0.70;;;7.40;99.90;;;;;;5070049;28;20450;-56
2023/01/16 13:26:16;;;;;;;0.90;0.20;;;7.50;99.90;;;;;;5070496;28;20523;-55
2023/01/16 13:28:47;;;;;;;0.30;0.17;;;7.50;99.90;;;;;;5078370;28;20426;-58
2023/01/16 13:31:24;;;;;;;0.30;0.10;;;7.50;99.90;;;;;;5063049;28;20820;-55
2023/01/16 13:33:57;;;;;;;0.30;0.10;;;7.60;99.90;;;;;;5067418;28;20932;-57
2023/01/16 13:36:57;;;;;;;0.30;0.10;;;7.60;99.90;;;;;;5067815;28;20867;-56
2023/01/16 13:40:11;;;;;;;0.30;0.10;;;7.80;99.90;;;;;;5059296;28;20541;-56
2023/01/16 13:42:42;;;;;;;0.40;0.10;;;7.90;99.90;;;;;;5053393;28;20673;-57
2023/01/16 13:48:05;;;;;;;0.40;0.10;;;8.00;99.90;;;;;;5069590;28;20407;-56
2023/01/16 13:50:35;;;;;;;0.40;0.10;;;7.90;99.90;;;;;;5068193;28;20423;-53
2023/01/16 13:53:05;;;;;;;0.30;0.10;;;7.90;99.90;;;;;;5053349;28;20493;-53
2023/01/16 13:55:37;;;;;;;0.30;0.10;;;7.90;99.90;;;;;;5052276;28;20845;-53
2023/01/16 13:58:18;;;;;;;0.70;0.10;;;7.80;99.90;;;;;;5065010;28;20436;-56
2023/01/16 14:00:45;;;;;;;0.60;0.20;;;7.70;99.90;;;;;;5064434;28;20464;-56
2023/01/16 14:03:22;;;;;;;0.40;0.20;;;7.70;99.90;;;;;;5068336;28;20800;-56
2023/01/16 14:05:51;;;;;;;0.50;0.10;;;7.70;99.90;;;;;;5067249;28;20522;-57
2023/01/16 14:11:39;;;;;;;0.32;0.10;;;7.60;99.90;;;;;;5070330;28;20438;-51
2023/01/16 14:17:20;;;;;;;0.30;0.10;;;7.60;99.90;;;;;;5054519;28;20856;-55
2023/01/16 14:20:00;;;;;;;0.30;0.10;;;7.50;99.90;;;;;;5056680;28;20432;-55
2023/01/16 14:25:24;;;;;;;0.30;0.10;;;7.40;99.90;;;;;;5069115;28;20407;-56
2023/01/16 14:27:56;;;;;;;0.30;0.10;;;7.40;99.90;;;;;;5070781;28;21163;-57
2023/01/16 14:30:27;;;;;;;0.30;0.10;;;7.20;99.90;;;;;;5075367;28;20420;-58